Pagina principală
METAR-TAF:

METAR-TAF

Aeroporturi :

Corsicana Municipal Airport (C. David Campbell Field)

Corsicana, Texas, Statele Unite ale Americii

Latitudine: 32-01-52N, longitudine: 096-23-56W, elevație: 136 m

Observații meteo curente

Raportul a fost făcut în urmă cu 20 de minute, la 22:53 UTC
Vânt 6 kt de la Sud
Temperatură 34°C
Umiditate 44%
Presiune 1015 hPa
Vizibilitate: 16.1 km
Nori puțini la o înălțime de 5000 picior

METAR: KCRS 222253Z AUTO 18006KT 10SM FEW050 34/20 A2998 RMK AO2 SLP146 T03440200

Ora: 18:13 (23:13 UTC)


TAF: lipsă

Observații și prognoze meteo pentru peste 4.000 de aeroporturi (rapoarte METAR și TAF).

Stațiile disponibile sunt reprezentate pe hartă prin puncte galbene și roșii.

Țineți indicatorul mouse-ului pe punctul dorit pentru a vedea denumirea stației.

Apoi, faceți clic pentru a vedea observațiile și prognozele meteorologice.

Pentru a schimba harta: Pentru mărire, faceți clic pe butoanele verzi cu cruce neagră; pentru micșorare, pe butonul verde cu o liniuță; pentru hărți învecinate, pe săgețile verzi.


METAR-TAF: